createdAt,value
2023-01-27T00:09:54.441Z,2.6
2023-01-27T00:25:07.577Z,2.6
2023-01-27T00:40:17.226Z,2.7
2023-01-27T00:55:26.006Z,2.7
2023-01-27T01:10:35.607Z,2.8
2023-01-27T01:25:47.935Z,2.9
2023-01-27T01:40:57.623Z,2.9
2023-01-27T01:56:07.145Z,2.9
2023-01-27T02:11:16.278Z,2.9
2023-01-27T02:26:25.617Z,3
2023-01-27T02:41:34.371Z,3
2023-01-27T02:56:45.087Z,3.1
2023-01-27T03:11:54.341Z,3.1
2023-01-27T03:27:04.416Z,3.1
2023-01-27T03:42:14.150Z,3.1
2023-01-27T03:57:24.078Z,3.2
2023-01-27T04:12:33.713Z,3.3
2023-01-27T04:27:43.527Z,3.4
2023-01-27T04:42:52.798Z,3.5
2023-01-27T04:58:02.914Z,3.6
2023-01-27T05:13:12.561Z,3.7
2023-01-27T05:28:22.212Z,3.7
2023-01-27T05:43:31.848Z,3.7
2023-01-27T05:58:41.189Z,3.7
2023-01-27T06:13:50.768Z,3.8
2023-01-27T06:29:00.016Z,3.8
2023-01-27T06:44:08.661Z,3.7
2023-01-27T06:59:18.681Z,3.7
2023-01-27T07:14:27.768Z,3.7
2023-01-27T07:29:37.175Z,3.7
2023-01-27T07:44:47.902Z,3.7
2023-01-27T07:59:57.829Z,3.7
2023-01-27T08:15:07.255Z,3.7
2023-01-27T08:30:16.947Z,3.8
2023-01-27T08:45:26.545Z,3.8
2023-01-27T09:00:35.879Z,3.8
2023-01-27T09:15:48.225Z,3.9
2023-01-27T09:30:57.290Z,3.9
2023-01-27T09:46:07.753Z,4
2023-01-27T10:01:17.738Z,4.1
2023-01-27T10:16:28.311Z,4.2
2023-01-27T10:31:38.357Z,4.2
2023-01-27T10:46:48.865Z,4.2
2023-01-27T11:01:58.697Z,4.2
2023-01-27T11:17:08.223Z,4.2
2023-01-27T11:32:17.973Z,4.2
2023-01-27T11:47:27.905Z,4.1
2023-01-27T12:02:37.782Z,4.1
2023-01-27T12:17:47.003Z,4.1
2023-01-27T12:32:57.471Z,4.1
2023-01-27T12:48:07.165Z,4.1
2023-01-27T13:03:16.640Z,4.2
2023-01-27T13:18:26.640Z,4.1
2023-01-27T13:33:36.072Z,4.1
2023-01-27T13:48:45.556Z,4
2023-01-27T14:03:55.102Z,4
2023-01-27T14:19:04.074Z,4
2023-01-27T14:34:13.932Z,3.9
2023-01-27T14:50:00.797Z,4.1
2023-01-27T15:05:11.183Z,3.9
2023-01-27T15:20:22.611Z,3.8
2023-01-27T15:35:31.859Z,3.8
2023-01-27T15:50:40.925Z,3.7
2023-01-27T16:05:50.184Z,3.7
2023-01-27T16:20:59.599Z,3.6
2023-01-27T16:36:09.232Z,3.5
2023-01-27T16:51:20.931Z,3.4
2023-01-27T17:06:31.253Z,3.3
2023-01-27T17:21:41.477Z,3.2
2023-01-27T17:36:50.533Z,3.2
2023-01-27T17:52:00.374Z,3.2
2023-01-27T18:07:09.619Z,3.1
2023-01-27T18:22:18.235Z,3.1
2023-01-27T18:37:27.905Z,3
2023-01-27T18:52:36.973Z,3
2023-01-27T19:07:47.282Z,2.9
2023-01-27T19:22:56.880Z,2.9
2023-01-27T19:38:05.973Z,2.9
2023-01-27T19:53:15.730Z,2.8
2023-01-27T20:08:25.177Z,2.8
2023-01-27T20:23:34.478Z,2.8
2023-01-27T20:38:43.973Z,2.8
2023-01-27T20:53:53.421Z,2.8
2023-01-27T21:09:02.791Z,2.8
2023-01-27T21:24:12.370Z,2.7
2023-01-27T21:39:21.917Z,2.7
2023-01-27T21:54:35.078Z,2.7
2023-01-27T22:09:44.468Z,2.7
2023-01-27T22:24:54.179Z,2.7
2023-01-27T22:40:02.804Z,2.7
2023-01-27T22:55:12.446Z,2.6
2023-01-27T23:10:24.058Z,2.5
2023-01-27T23:25:33.278Z,2.5
2023-01-27T23:40:44.462Z,2.5
2023-01-27T23:55:53.597Z,2.5
